createdAt,value
2024-03-02T00:00:58.382Z,3.88
2024-03-02T00:03:33.309Z,3.86
2024-03-02T00:06:07.516Z,3.89
2024-03-02T00:08:41.450Z,3.90
2024-03-02T00:11:17.255Z,3.90
2024-03-02T00:13:51.521Z,3.91
2024-03-02T00:16:26.279Z,3.90
2024-03-02T00:19:01.230Z,3.87
2024-03-02T00:21:35.640Z,3.84
2024-03-02T00:24:16.602Z,3.84
2024-03-02T00:26:50.431Z,3.82
2024-03-02T00:29:25.767Z,3.80
2024-03-02T00:31:59.989Z,3.82
2024-03-02T00:34:33.545Z,3.82
2024-03-02T00:37:08.995Z,3.83
2024-03-02T00:39:42.552Z,3.83
2024-03-02T00:42:16.111Z,3.85
2024-03-02T00:44:49.991Z,3.80
2024-03-02T00:47:24.302Z,3.74
2024-03-02T00:49:59.256Z,3.73
2024-03-02T00:52:34.374Z,3.73
2024-03-02T00:55:10.184Z,3.74
2024-03-02T00:57:45.521Z,3.73
2024-03-02T01:00:21.018Z,3.75
2024-03-02T01:02:54.449Z,3.73
2024-03-02T01:05:27.765Z,3.69
2024-03-02T01:08:02.604Z,3.65
2024-03-02T01:10:36.076Z,3.68
2024-03-02T01:13:09.881Z,3.68
2024-03-02T01:15:43.578Z,3.69
2024-03-02T01:18:17.381Z,3.65
2024-03-02T01:20:52.674Z,3.61
2024-03-02T01:23:26.233Z,3.58
2024-03-02T01:25:59.824Z,3.56
2024-03-02T01:28:33.276Z,3.58
2024-03-02T01:31:07.262Z,3.60
2024-03-02T01:33:40.966Z,3.62
2024-03-02T01:36:14.872Z,3.64
2024-03-02T01:38:48.527Z,3.63
2024-03-02T01:41:22.043Z,3.64
2024-03-02T01:43:55.426Z,3.64
2024-03-02T01:46:29.058Z,3.60
2024-03-02T01:49:02.482Z,3.60
2024-03-02T01:51:36.136Z,3.62
2024-03-02T01:54:09.755Z,3.64
2024-03-02T01:56:43.627Z,3.61
2024-03-02T01:59:17.230Z,3.59
2024-03-02T02:01:50.744Z,3.55
2024-03-02T02:04:26.085Z,3.55
2024-03-02T02:06:59.460Z,3.53
2024-03-02T02:09:32.931Z,3.51
2024-03-02T02:12:07.989Z,3.48
2024-03-02T02:14:43.076Z,3.48
2024-03-02T02:17:16.872Z,3.46
2024-03-02T02:19:50.641Z,3.46
2024-03-02T02:22:24.761Z,3.47
2024-03-02T02:24:58.240Z,3.46
2024-03-02T02:27:32.011Z,3.48
2024-03-02T02:30:06.582Z,3.49
2024-03-02T02:32:40.118Z,3.50
2024-03-02T02:35:14.028Z,3.51
2024-03-02T02:37:48.107Z,3.52
2024-03-02T02:40:22.036Z,3.54
2024-03-02T02:42:55.732Z,3.59
2024-03-02T02:45:29.453Z,3.61
2024-03-02T02:48:04.250Z,3.60
2024-03-02T02:50:37.879Z,3.63
2024-03-02T02:53:11.450Z,3.64
2024-03-02T02:55:45.087Z,3.61
2024-03-02T02:58:18.657Z,3.60
2024-03-02T03:00:52.606Z,3.61
2024-03-02T03:03:26.434Z,3.58
2024-03-02T03:05:59.954Z,3.53
2024-03-02T03:08:34.177Z,3.52
2024-03-02T03:11:08.500Z,3.51
2024-03-02T03:13:42.356Z,3.44
2024-03-02T03:16:15.758Z,3.38
2024-03-02T03:18:50.931Z,3.39
2024-03-02T03:21:24.776Z,3.41
2024-03-02T03:23:58.310Z,3.40
2024-03-02T03:26:31.691Z,3.37
2024-03-02T03:29:05.154Z,3.37
2024-03-02T03:31:38.621Z,3.33
2024-03-02T03:34:13.792Z,3.34
2024-03-02T03:36:47.410Z,3.36
2024-03-02T03:39:20.929Z,3.44
2024-03-02T03:41:54.384Z,3.49
2024-03-02T03:44:27.923Z,3.51
2024-03-02T03:47:02.239Z,3.51
2024-03-02T03:49:35.352Z,3.51
2024-03-02T03:52:09.443Z,3.50
2024-03-02T03:54:44.310Z,3.49
2024-03-02T03:57:17.932Z,3.49
2024-03-02T03:59:51.191Z,3.47
2024-03-02T04:02:26.024Z,3.43
2024-03-02T04:04:59.642Z,3.45
2024-03-02T04:07:36.789Z,3.43
2024-03-02T04:10:13.357Z,3.44
2024-03-02T04:12:47.427Z,3.45
2024-03-02T04:15:21.005Z,3.49
2024-03-02T04:17:54.824Z,3.52
2024-03-02T04:20:28.365Z,3.49
2024-03-02T04:23:01.720Z,3.50
2024-03-02T04:25:35.379Z,3.46
2024-03-02T04:28:09.746Z,3.45
2024-03-02T04:30:43.277Z,3.45
2024-03-02T04:33:17.105Z,3.47
2024-03-02T04:35:51.053Z,3.51
2024-03-02T04:38:24.833Z,3.51
2024-03-02T04:40:58.256Z,3.49
2024-03-02T04:43:33.076Z,3.43
2024-03-02T04:46:08.337Z,3.42
2024-03-02T04:48:43.073Z,3.41
2024-03-02T04:51:17.204Z,3.40
2024-03-02T04:53:50.768Z,3.36
2024-03-02T04:56:43.081Z,3.34
2024-03-02T04:59:16.544Z,3.36
2024-03-02T05:01:50.218Z,3.31
2024-03-02T05:04:23.671Z,3.30
2024-03-02T05:06:58.618Z,3.32
2024-03-02T05:09:32.413Z,3.31
2024-03-02T05:12:15.495Z,3.26
2024-03-02T05:14:49.684Z,3.32
2024-03-02T05:17:25.472Z,3.39
2024-03-02T05:19:59.053Z,3.44
2024-03-02T05:22:35.194Z,3.48
2024-03-02T05:25:10.973Z,3.57
2024-03-02T05:27:47.685Z,3.62
2024-03-02T05:30:21.492Z,3.62
2024-03-02T05:32:55.134Z,3.59
2024-03-02T05:35:28.652Z,3.67
2024-03-02T05:38:02.171Z,3.72
2024-03-02T05:40:35.656Z,3.73
2024-03-02T05:43:09.280Z,3.71
2024-03-02T05:45:42.941Z,3.64
2024-03-02T05:48:16.490Z,3.62
2024-03-02T05:50:50.040Z,3.61
2024-03-02T05:53:23.964Z,3.59
2024-03-02T05:55:57.884Z,3.61
2024-03-02T05:58:36.996Z,3.61
2024-03-02T06:01:10.967Z,3.58
2024-03-02T06:03:44.441Z,3.57
2024-03-02T06:06:18.121Z,3.54
2024-03-02T06:08:52.485Z,3.56
2024-03-02T06:11:26.107Z,3.57
2024-03-02T06:13:59.883Z,3.52
2024-03-02T06:16:33.575Z,3.52
2024-03-02T06:19:07.028Z,3.53
2024-03-02T06:21:41.487Z,3.61
2024-03-02T06:24:17.065Z,3.72
2024-03-02T06:26:50.755Z,3.83
2024-03-02T06:29:24.474Z,3.90
2024-03-02T06:31:57.762Z,3.96
2024-03-02T06:34:31.338Z,3.98
2024-03-02T06:37:04.862Z,4.02
2024-03-02T06:39:38.718Z,3.96
2024-03-02T06:42:13.089Z,3.94
2024-03-02T06:44:46.582Z,3.92
2024-03-02T06:47:21.683Z,3.96
2024-03-02T06:49:55.429Z,4.01
2024-03-02T06:52:29.011Z,4.00
2024-03-02T06:55:02.498Z,4.02
2024-03-02T06:57:35.995Z,4.04
2024-03-02T07:00:11.816Z,4.10
2024-03-02T07:02:45.581Z,4.19
2024-03-02T07:05:19.213Z,4.25
2024-03-02T07:07:52.594Z,4.25
2024-03-02T07:10:26.128Z,4.27
2024-03-02T07:13:00.152Z,4.34
2024-03-02T07:15:47.018Z,4.34
2024-03-02T07:18:21.014Z,4.37
2024-03-02T07:20:54.627Z,4.40
2024-03-02T07:23:28.758Z,4.45
2024-03-02T07:28:38.342Z,4.62
2024-03-02T07:31:11.992Z,4.67
2024-03-02T07:33:47.773Z,4.68
2024-03-02T07:36:23.899Z,4.67
2024-03-02T07:38:57.859Z,4.57
2024-03-02T07:41:37.150Z,4.51
2024-03-02T07:44:11.190Z,4.55
2024-03-02T07:46:45.199Z,4.56
2024-03-02T07:49:19.060Z,4.60
2024-03-02T07:51:52.628Z,4.66
2024-03-02T07:54:26.074Z,4.81
2024-03-02T07:57:00.029Z,4.93
2024-03-02T07:59:34.002Z,5.08
2024-03-02T08:02:08.371Z,5.16
2024-03-02T08:04:43.386Z,5.18
2024-03-02T08:07:17.035Z,5.25
2024-03-02T08:09:50.560Z,5.29
2024-03-02T08:12:24.956Z,5.30
2024-03-02T08:14:58.496Z,5.32
2024-03-02T08:17:34.181Z,5.35
2024-03-02T08:20:10.593Z,5.35
2024-03-02T08:22:44.131Z,5.32
2024-03-02T08:25:18.130Z,5.39
2024-03-02T08:27:51.825Z,5.41
2024-03-02T08:30:25.502Z,5.47
2024-03-02T08:32:59.016Z,5.52
2024-03-02T08:35:34.143Z,5.58
2024-03-02T08:38:08.269Z,5.66
2024-03-02T08:40:42.919Z,5.71
2024-03-02T08:43:16.667Z,5.77
2024-03-02T08:45:50.547Z,5.78
2024-03-02T08:48:24.322Z,5.84
2024-03-02T08:50:58.294Z,5.84
2024-03-02T08:53:31.713Z,5.76
2024-03-02T08:56:06.695Z,5.71
2024-03-02T08:58:40.407Z,5.67
2024-03-02T09:01:14.728Z,5.63
2024-03-02T09:03:48.686Z,5.66
2024-03-02T09:06:22.884Z,5.64
2024-03-02T09:08:56.590Z,5.66
2024-03-02T09:11:30.372Z,5.70
2024-03-02T09:14:04.080Z,5.78
2024-03-02T09:16:37.776Z,5.85
2024-03-02T09:19:13.115Z,5.93
2024-03-02T09:21:47.006Z,5.82
2024-03-02T09:24:20.510Z,5.72
2024-03-02T09:26:54.399Z,5.67
2024-03-02T09:29:28.250Z,5.71
2024-03-02T09:32:01.796Z,5.73
2024-03-02T09:34:35.309Z,5.79
2024-03-02T09:37:09.607Z,5.83
2024-03-02T09:39:44.884Z,5.90
2024-03-02T09:42:19.401Z,5.88
2024-03-02T09:44:54.067Z,5.91
2024-03-02T09:47:27.900Z,6.04
2024-03-02T09:50:03.108Z,6.18
2024-03-02T09:52:38.533Z,6.31
2024-03-02T09:55:15.909Z,6.31
2024-03-02T09:57:53.627Z,6.27
2024-03-02T10:00:29.644Z,6.34
2024-03-02T10:03:03.250Z,6.40
2024-03-02T10:05:39.094Z,6.20
2024-03-02T10:08:13.295Z,5.78
2024-03-02T10:10:47.343Z,5.66
2024-03-02T10:13:20.850Z,5.76
2024-03-02T10:15:55.808Z,5.68
2024-03-02T10:18:32.728Z,5.68
2024-03-02T10:21:16.821Z,5.88
2024-03-02T10:23:50.308Z,6.17
2024-03-02T10:26:24.475Z,6.33
2024-03-02T10:28:59.650Z,6.59
2024-03-02T10:31:33.166Z,6.89
2024-03-02T10:34:07.567Z,6.97
2024-03-02T10:36:43.418Z,7.15
2024-03-02T10:39:17.339Z,7.13
2024-03-02T10:41:52.060Z,7.16
2024-03-02T10:44:26.454Z,7.24
2024-03-02T10:47:02.435Z,7.31
2024-03-02T10:49:36.610Z,7.31
2024-03-02T10:52:10.845Z,7.26
2024-03-02T10:54:45.009Z,7.25
2024-03-02T10:57:26.707Z,7.16
2024-03-02T11:00:03.726Z,7.16
2024-03-02T11:02:40.012Z,7.10
2024-03-02T11:05:15.858Z,7.05
2024-03-02T11:07:50.063Z,6.86
2024-03-02T11:10:25.301Z,6.78
2024-03-02T11:13:03.467Z,6.81
2024-03-02T11:15:40.346Z,6.84
2024-03-02T11:18:15.235Z,6.80
2024-03-02T11:20:51.873Z,6.81
2024-03-02T11:23:36.406Z,6.84
2024-03-02T11:26:22.632Z,6.77
2024-03-02T11:28:57.266Z,6.73
2024-03-02T11:32:01.220Z,6.63
2024-03-02T11:34:35.926Z,6.53
2024-03-02T11:37:11.608Z,6.45
2024-03-02T11:39:47.189Z,6.46
2024-03-02T11:42:22.152Z,6.49
2024-03-02T11:44:57.039Z,6.48
2024-03-02T11:47:34.908Z,6.42
2024-03-02T11:50:10.661Z,6.42
2024-03-02T11:52:45.980Z,6.47
2024-03-02T11:55:20.808Z,6.47
2024-03-02T11:57:56.208Z,6.50
2024-03-02T12:00:29.932Z,6.55
2024-03-02T12:03:08.608Z,6.60
2024-03-02T12:05:43.351Z,6.52
2024-03-02T12:08:16.831Z,6.51
2024-03-02T12:11:04.701Z,6.57
2024-03-02T12:13:38.829Z,6.50
2024-03-02T12:16:14.988Z,6.50
2024-03-02T12:18:48.791Z,6.52
2024-03-02T12:21:22.444Z,6.48
2024-03-02T12:23:59.198Z,6.43
2024-03-02T12:26:33.948Z,6.31
2024-03-02T12:29:07.560Z,6.12
2024-03-02T12:31:41.717Z,5.95
2024-03-02T12:34:16.794Z,5.86
2024-03-02T12:36:53.086Z,5.84
2024-03-02T12:39:28.457Z,5.70
2024-03-02T12:42:02.076Z,5.42
2024-03-02T12:44:35.680Z,5.42
2024-03-02T12:47:09.694Z,5.47
2024-03-02T12:49:44.227Z,5.49
2024-03-02T12:52:20.455Z,5.47
2024-03-02T12:54:56.643Z,5.48
2024-03-02T12:57:32.207Z,5.58
2024-03-02T13:00:09.812Z,5.70
2024-03-02T13:02:44.800Z,5.72
2024-03-02T13:05:18.105Z,5.67
2024-03-02T13:07:52.100Z,5.63
2024-03-02T13:10:26.377Z,5.60
2024-03-02T13:13:01.695Z,5.58
2024-03-02T13:15:37.049Z,5.54
2024-03-02T13:18:15.031Z,5.48
2024-03-02T13:23:31.999Z,5.49
2024-03-02T13:26:07.530Z,5.27
2024-03-02T13:28:41.586Z,5.21
2024-03-02T13:31:14.899Z,5.17
2024-03-02T13:33:48.446Z,4.99
2024-03-02T13:36:23.576Z,4.85
2024-03-02T13:38:57.027Z,4.84
2024-03-02T13:41:30.494Z,4.91
2024-03-02T13:44:03.909Z,4.92
2024-03-02T13:46:37.160Z,4.80
2024-03-02T13:49:10.424Z,4.74
2024-03-02T13:51:44.325Z,4.63
2024-03-02T13:54:17.599Z,4.55
2024-03-02T13:56:51.183Z,4.55
2024-03-02T13:59:24.688Z,4.52
2024-03-02T14:01:57.795Z,4.49
2024-03-02T14:04:31.257Z,4.51
2024-03-02T14:07:05.174Z,4.51
2024-03-02T14:09:38.845Z,4.40
2024-03-02T14:12:14.884Z,4.41
2024-03-02T14:14:48.187Z,4.44
2024-03-02T14:17:21.696Z,4.44
2024-03-02T14:19:55.317Z,4.35
2024-03-02T14:22:28.892Z,4.25
2024-03-02T14:25:02.320Z,4.03
2024-03-02T14:27:50.955Z,3.83
2024-03-02T14:30:14.897Z,3.62
2024-03-02T14:32:48.254Z,3.54
2024-03-02T14:35:23.503Z,3.47
2024-03-02T14:37:58.794Z,3.41
2024-03-02T14:40:32.120Z,3.43
2024-03-02T14:43:06.928Z,3.42
2024-03-02T14:45:40.515Z,3.48
2024-03-02T14:48:14.221Z,3.56
2024-03-02T14:50:47.668Z,3.59
2024-03-02T14:53:21.809Z,3.61
2024-03-02T14:55:55.372Z,3.60
2024-03-02T14:58:28.875Z,3.58
2024-03-02T15:01:02.622Z,3.56
2024-03-02T15:03:37.350Z,3.55
2024-03-02T15:06:11.765Z,3.61
2024-03-02T15:08:47.013Z,3.63
2024-03-02T15:11:20.440Z,3.57
2024-03-02T15:13:55.113Z,3.52
2024-03-02T15:16:29.662Z,3.49
2024-03-02T15:19:04.057Z,3.48
2024-03-02T15:21:39.737Z,3.45
2024-03-02T15:24:13.051Z,3.45
2024-03-02T15:26:46.897Z,3.40
2024-03-02T15:29:23.605Z,3.35
2024-03-02T15:31:56.864Z,3.33
2024-03-02T15:34:30.261Z,3.30
2024-03-02T15:37:05.397Z,3.28
2024-03-02T15:39:39.532Z,3.30
2024-03-02T15:42:13.875Z,3.18
2024-03-02T15:44:47.499Z,3.04
2024-03-02T15:47:21.015Z,2.94
2024-03-02T15:49:54.613Z,2.87
2024-03-02T15:52:28.444Z,2.81
2024-03-02T15:55:03.121Z,2.72
2024-03-02T15:57:37.727Z,2.71
2024-03-02T16:00:13.055Z,2.70
2024-03-02T16:02:46.563Z,2.68
2024-03-02T16:05:21.607Z,2.63
2024-03-02T16:07:54.981Z,2.63
2024-03-02T16:10:28.715Z,2.58
2024-03-02T16:13:02.093Z,2.55
2024-03-02T16:15:37.790Z,2.52
2024-03-02T16:18:11.289Z,2.50
2024-03-02T16:20:44.752Z,2.43
2024-03-02T16:23:20.598Z,2.38
2024-03-02T16:25:54.917Z,2.35
2024-03-02T16:28:28.732Z,2.28
2024-03-02T16:31:02.271Z,2.25
2024-03-02T16:33:36.178Z,2.24
2024-03-02T16:36:10.887Z,2.23
2024-03-02T16:38:45.456Z,2.19
2024-03-02T16:41:20.466Z,2.17
2024-03-02T16:43:54.759Z,2.14
2024-03-02T16:46:29.603Z,2.15
2024-03-02T16:49:03.580Z,2.14
2024-03-02T16:51:43.799Z,2.20
2024-03-02T16:54:17.618Z,2.22
2024-03-02T16:56:51.071Z,2.22
2024-03-02T16:59:24.652Z,2.25
2024-03-02T17:04:39.988Z,2.36
2024-03-02T17:07:14.502Z,2.20
2024-03-02T17:09:48.289Z,2.15
2024-03-02T17:12:21.877Z,2.20
2024-03-02T17:14:55.850Z,2.18
2024-03-02T17:17:29.629Z,2.20
2024-03-02T17:20:03.835Z,2.15
2024-03-02T17:22:37.243Z,2.12
2024-03-02T17:25:11.812Z,2.07
2024-03-02T17:27:45.055Z,2.08
2024-03-02T17:30:21.631Z,2.09
2024-03-02T17:32:54.956Z,2.06
2024-03-02T17:35:28.403Z,2.06
2024-03-02T17:38:03.632Z,2.07
2024-03-02T17:40:36.949Z,2.08
2024-03-02T17:43:10.442Z,2.07
2024-03-02T17:45:44.118Z,2.04
2024-03-02T17:48:18.371Z,2.07
2024-03-02T17:50:52.186Z,2.06
2024-03-02T17:53:26.094Z,2.01
2024-03-02T17:55:59.987Z,1.99
2024-03-02T17:58:33.743Z,1.95
2024-03-02T18:01:07.783Z,1.93
2024-03-02T18:03:41.265Z,1.89
2024-03-02T18:06:15.636Z,1.82
2024-03-02T18:08:50.868Z,1.74
2024-03-02T18:11:25.892Z,1.62
2024-03-02T18:13:59.466Z,1.52
2024-03-02T18:16:32.923Z,1.42
2024-03-02T18:19:08.798Z,1.31
2024-03-02T18:21:41.829Z,1.23
2024-03-02T18:24:15.242Z,1.15
2024-03-02T18:26:48.466Z,1.11
2024-03-02T18:29:22.505Z,1.05
2024-03-02T18:31:57.197Z,0.97
2024-03-02T18:34:30.649Z,0.92
2024-03-02T18:37:04.308Z,0.89
2024-03-02T18:39:37.657Z,0.80
2024-03-02T18:42:11.109Z,0.72
2024-03-02T18:44:45.126Z,0.65
2024-03-02T18:47:19.589Z,0.61
2024-03-02T18:49:54.866Z,0.56
2024-03-02T18:52:28.984Z,0.49
2024-03-02T18:55:04.183Z,0.45
2024-03-02T18:57:38.206Z,0.41
2024-03-02T19:00:14.310Z,0.40
2024-03-02T19:02:49.070Z,0.38
2024-03-02T19:05:22.830Z,0.38
2024-03-02T19:07:56.684Z,0.35
2024-03-02T19:10:30.394Z,0.32
2024-03-02T19:13:04.123Z,0.28
2024-03-02T19:15:37.748Z,0.28
2024-03-02T19:18:12.662Z,0.25
2024-03-02T19:20:47.319Z,0.23
2024-03-02T19:23:25.835Z,0.21
2024-03-02T19:25:58.006Z,0.18
2024-03-02T19:28:31.933Z,0.15
2024-03-02T19:31:06.367Z,0.12
2024-03-02T19:33:40.373Z,0.11
2024-03-02T19:36:14.951Z,0.09
2024-03-02T19:38:48.649Z,0.03
2024-03-02T19:41:23.331Z,0.01
2024-03-02T19:43:57.314Z,-0.04
2024-03-02T19:46:34.298Z,-0.07
2024-03-02T19:49:07.976Z,-0.12
2024-03-02T19:51:41.927Z,-0.14
2024-03-02T19:54:15.600Z,-0.17
2024-03-02T19:56:48.932Z,-0.21
2024-03-02T19:59:22.303Z,-0.27
2024-03-02T20:01:56.466Z,-0.31
2024-03-02T20:04:29.966Z,-0.34
2024-03-02T20:07:04.494Z,-0.39
2024-03-02T20:09:38.521Z,-0.40
2024-03-02T20:12:12.296Z,-0.44
2024-03-02T20:14:47.768Z,-0.47
2024-03-02T20:17:22.763Z,-0.51
2024-03-02T20:19:56.671Z,-0.53
2024-03-02T20:22:30.221Z,-0.57
2024-03-02T20:25:04.065Z,-0.57
2024-03-02T20:27:37.424Z,-0.59
2024-03-02T20:30:14.096Z,-0.62
2024-03-02T20:32:47.746Z,-0.65
2024-03-02T20:35:21.405Z,-0.69
2024-03-02T20:37:57.466Z,-0.71
2024-03-02T20:40:31.124Z,-0.72
2024-03-02T20:43:05.345Z,-0.76
2024-03-02T20:45:41.757Z,-0.79
2024-03-02T20:48:16.285Z,-0.83
2024-03-02T20:50:49.917Z,-0.87
2024-03-02T20:53:23.661Z,-0.84
2024-03-02T20:55:57.145Z,-0.87
2024-03-02T20:58:31.909Z,-0.87
2024-03-02T21:01:06.671Z,-0.91
2024-03-02T21:03:41.873Z,-0.95
2024-03-02T21:06:15.676Z,-0.95
2024-03-02T21:08:49.226Z,-0.94
2024-03-02T21:11:23.439Z,-0.96
2024-03-02T21:13:57.584Z,-0.96
2024-03-02T21:16:31.194Z,-1.01
2024-03-02T21:19:04.654Z,-1.01
2024-03-02T21:21:39.833Z,-1.03
2024-03-02T21:24:13.252Z,-1.04
2024-03-02T21:26:47.618Z,-1.06
2024-03-02T21:29:21.459Z,-1.07
2024-03-02T21:31:56.922Z,-1.10
2024-03-02T21:34:30.394Z,-1.11
2024-03-02T21:37:04.596Z,-1.16
2024-03-02T21:39:43.214Z,-1.16
2024-03-02T21:42:13.379Z,-1.20
2024-03-02T21:44:46.908Z,-1.20
2024-03-02T21:47:20.895Z,-1.20
2024-03-02T21:49:54.071Z,-1.20
2024-03-02T21:52:27.945Z,-1.21
2024-03-02T21:55:01.987Z,-1.22
2024-03-02T21:57:35.992Z,-1.22
2024-03-02T22:00:10.974Z,-1.27
2024-03-02T22:02:47.448Z,-1.25
2024-03-02T22:05:21.062Z,-1.26
2024-03-02T22:07:56.179Z,-1.29
2024-03-02T22:10:30.783Z,-1.31
2024-03-02T22:13:04.865Z,-1.34
2024-03-02T22:15:38.541Z,-1.37
2024-03-02T22:18:12.035Z,-1.37
2024-03-02T22:20:45.857Z,-1.37
2024-03-02T22:23:19.744Z,-1.37
2024-03-02T22:25:53.510Z,-1.34
2024-03-02T22:28:27.131Z,-1.30
2024-03-02T22:31:00.841Z,-1.26
2024-03-02T22:33:34.817Z,-1.24
2024-03-02T22:36:10.387Z,-1.23
2024-03-02T22:38:43.961Z,-1.22
2024-03-02T22:41:17.551Z,-1.21
2024-03-02T22:43:51.196Z,-1.23
2024-03-02T22:46:28.173Z,-1.23
2024-03-02T22:49:11.037Z,-1.24
2024-03-02T22:51:54.784Z,-1.23
2024-03-02T22:54:32.716Z,-1.23
2024-03-02T22:57:08.180Z,-1.26
2024-03-02T22:59:42.933Z,-1.23
2024-03-02T23:02:21.952Z,-1.29
2024-03-02T23:05:00.208Z,-1.31
2024-03-02T23:07:35.203Z,-1.34
2024-03-02T23:10:10.532Z,-1.35
2024-03-02T23:12:46.646Z,-1.34
2024-03-02T23:15:20.612Z,-1.31
2024-03-02T23:17:55.761Z,-1.30
2024-03-02T23:20:37.213Z,-1.29
2024-03-02T23:23:12.167Z,-1.31
2024-03-02T23:25:46.495Z,-1.35
2024-03-02T23:28:20.241Z,-1.39
2024-03-02T23:30:54.804Z,-1.41
2024-03-02T23:33:28.365Z,-1.45
2024-03-02T23:36:02.068Z,-1.46
2024-03-02T23:38:35.608Z,-1.49
2024-03-02T23:41:12.582Z,-1.52
2024-03-02T23:43:45.485Z,-1.54
2024-03-02T23:46:18.747Z,-1.54
2024-03-02T23:48:52.432Z,-1.60
2024-03-02T23:51:26.241Z,-1.62
2024-03-02T23:54:01.254Z,-1.64
2024-03-02T23:56:34.670Z,-1.67
2024-03-02T23:59:08.972Z,-1.68
